sensor_id;sensor_type;location;lat;lon;timestamp;temperature;humidity
68378;DHT22;55322;48.146;11.516;2024-02-21T00:00:08;4.12;81.33
68378;DHT22;55322;48.146;11.516;2024-02-21T00:02:36;4.09;80.95
68378;DHT22;55322;48.146;11.516;2024-02-21T00:05:02;4.10;80.83
68378;DHT22;55322;48.146;11.516;2024-02-21T00:07:27;4.10;81.29
68378;DHT22;55322;48.146;11.516;2024-02-21T00:09:53;4.10;81.99
68378;DHT22;55322;48.146;11.516;2024-02-21T00:12:18;4.10;81.98
68378;DHT22;55322;48.146;11.516;2024-02-21T00:14:44;4.13;81.86
68378;DHT22;55322;48.146;11.516;2024-02-21T00:17:09;4.12;81.41
68378;DHT22;55322;48.146;11.516;2024-02-21T00:19:34;4.13;81.19
68378;DHT22;55322;48.146;11.516;2024-02-21T00:22:00;4.19;81.17
68378;DHT22;55322;48.146;11.516;2024-02-21T00:24:26;4.22;81.04
68378;DHT22;55322;48.146;11.516;2024-02-21T00:26:51;4.18;81.05
68378;DHT22;55322;48.146;11.516;2024-02-21T00:29:16;4.25;81.67
68378;DHT22;55322;48.146;11.516;2024-02-21T00:31:42;4.22;81.86
68378;DHT22;55322;48.146;11.516;2024-02-21T00:34:07;4.20;81.76
68378;DHT22;55322;48.146;11.516;2024-02-21T00:36:32;4.20;82.57
68378;DHT22;55322;48.146;11.516;2024-02-21T00:38:58;4.19;82.23
68378;DHT22;55322;48.146;11.516;2024-02-21T00:41:23;4.22;81.71
68378;DHT22;55322;48.146;11.516;2024-02-21T00:43:49;4.22;81.69
68378;DHT22;55322;48.146;11.516;2024-02-21T00:46:15;4.20;81.17
68378;DHT22;55322;48.146;11.516;2024-02-21T00:48:40;4.25;81.30
68378;DHT22;55322;48.146;11.516;2024-02-21T00:51:06;4.26;80.85
68378;DHT22;55322;48.146;11.516;2024-02-21T00:53:31;4.28;80.33
68378;DHT22;55322;48.146;11.516;2024-02-21T00:55:56;4.29;80.89
68378;DHT22;55322;48.146;11.516;2024-02-21T00:58:22;4.26;80.68
68378;DHT22;55322;48.146;11.516;2024-02-21T01:00:47;4.33;80.67
68378;DHT22;55322;48.146;11.516;2024-02-21T01:03:13;4.33;80.88
68378;DHT22;55322;48.146;11.516;2024-02-21T01:05:38;4.28;80.52
68378;DHT22;55322;48.146;11.516;2024-02-21T01:08:04;4.28;80.58
68378;DHT22;55322;48.146;11.516;2024-02-21T01:10:29;4.32;81.06
68378;DHT22;55322;48.146;11.516;2024-02-21T01:12:55;4.29;80.72
68378;DHT22;55322;48.146;11.516;2024-02-21T01:15:20;4.30;81.28
68378;DHT22;55322;48.146;11.516;2024-02-21T01:17:46;4.30;81.18
68378;DHT22;55322;48.146;11.516;2024-02-21T01:20:11;4.33;81.04
68378;DHT22;55322;48.146;11.516;2024-02-21T01:22:36;4.36;80.60
68378;DHT22;55322;48.146;11.516;2024-02-21T01:25:02;4.36;80.47
68378;DHT22;55322;48.146;11.516;2024-02-21T01:27:27;4.33;80.73
68378;DHT22;55322;48.146;11.516;2024-02-21T01:29:53;4.38;80.90
68378;DHT22;55322;48.146;11.516;2024-02-21T01:32:18;4.33;81.39
68378;DHT22;55322;48.146;11.516;2024-02-21T01:34:43;4.38;81.20
68378;DHT22;55322;48.146;11.516;2024-02-21T01:37:09;4.36;81.22
68378;DHT22;55322;48.146;11.516;2024-02-21T01:39:34;4.43;81.27
68378;DHT22;55322;48.146;11.516;2024-02-21T01:42:00;4.42;81.15
68378;DHT22;55322;48.146;11.516;2024-02-21T01:44:25;4.42;81.40
68378;DHT22;55322;48.146;11.516;2024-02-21T01:46:51;4.46;80.19
68378;DHT22;55322;48.146;11.516;2024-02-21T01:49:17;4.48;80.78
68378;DHT22;55322;48.146;11.516;2024-02-21T01:51:44;4.53;80.84
68378;DHT22;55322;48.146;11.516;2024-02-21T01:54:09;4.53;80.89
68378;DHT22;55322;48.146;11.516;2024-02-21T01:56:35;4.52;80.74
68378;DHT22;55322;48.146;11.516;2024-02-21T01:59:01;4.56;80.68
68378;DHT22;55322;48.146;11.516;2024-02-21T02:01:26;4.57;80.86
68378;DHT22;55322;48.146;11.516;2024-02-21T02:03:53;4.59;80.34
68378;DHT22;55322;48.146;11.516;2024-02-21T02:06:20;4.64;80.58
68378;DHT22;55322;48.146;11.516;2024-02-21T02:08:45;4.63;80.57
68378;DHT22;55322;48.146;11.516;2024-02-21T02:11:13;4.56;80.31
68378;DHT22;55322;48.146;11.516;2024-02-21T02:13:39;4.54;80.88
68378;DHT22;55322;48.146;11.516;2024-02-21T02:16:04;4.50;81.40
68378;DHT22;55322;48.146;11.516;2024-02-21T02:18:30;4.56;80.75
68378;DHT22;55322;48.146;11.516;2024-02-21T02:20:55;4.62;79.99
68378;DHT22;55322;48.146;11.516;2024-02-21T02:23:25;4.57;79.95
68378;DHT22;55322;48.146;11.516;2024-02-21T02:25:50;4.60;80.01
68378;DHT22;55322;48.146;11.516;2024-02-21T02:28:19;4.59;80.03
68378;DHT22;55322;48.146;11.516;2024-02-21T02:30:45;4.67;79.64
68378;DHT22;55322;48.146;11.516;2024-02-21T02:33:11;4.66;79.95
68378;DHT22;55322;48.146;11.516;2024-02-21T02:35:36;4.60;79.30
68378;DHT22;55322;48.146;11.516;2024-02-21T02:38:02;4.64;80.04
68378;DHT22;55322;48.146;11.516;2024-02-21T02:40:28;4.67;79.66
68378;DHT22;55322;48.146;11.516;2024-02-21T02:42:54;4.67;79.38
68378;DHT22;55322;48.146;11.516;2024-02-21T02:45:23;4.67;79.84
68378;DHT22;55322;48.146;11.516;2024-02-21T02:47:52;4.63;79.34
68378;DHT22;55322;48.146;11.516;2024-02-21T02:50:17;4.62;79.10
68378;DHT22;55322;48.146;11.516;2024-02-21T02:52:42;4.67;79.37
68378;DHT22;55322;48.146;11.516;2024-02-21T02:55:08;4.66;79.60
68378;DHT22;55322;48.146;11.516;2024-02-21T02:57:33;4.67;80.39
68378;DHT22;55322;48.146;11.516;2024-02-21T02:59:59;4.79;79.08
68378;DHT22;55322;48.146;11.516;2024-02-21T03:02:24;4.73;78.88
68378;DHT22;55322;48.146;11.516;2024-02-21T03:04:50;4.72;79.01
68378;DHT22;55322;48.146;11.516;2024-02-21T03:07:15;4.69;78.85
68378;DHT22;55322;48.146;11.516;2024-02-21T03:09:41;4.70;79.69
68378;DHT22;55322;48.146;11.516;2024-02-21T03:12:08;4.72;79.63
68378;DHT22;55322;48.146;11.516;2024-02-21T03:14:34;4.64;79.54
68378;DHT22;55322;48.146;11.516;2024-02-21T03:16:59;4.67;79.22
68378;DHT22;55322;48.146;11.516;2024-02-21T03:19:25;4.59;78.72
68378;DHT22;55322;48.146;11.516;2024-02-21T03:21:51;4.64;79.15
68378;DHT22;55322;48.146;11.516;2024-02-21T03:24:17;4.59;79.34
68378;DHT22;55322;48.146;11.516;2024-02-21T03:26:42;4.62;79.26
68378;DHT22;55322;48.146;11.516;2024-02-21T03:29:08;4.56;78.66
68378;DHT22;55322;48.146;11.516;2024-02-21T03:31:37;4.59;79.15
68378;DHT22;55322;48.146;11.516;2024-02-21T03:34:03;4.57;79.07
68378;DHT22;55322;48.146;11.516;2024-02-21T03:36:28;4.57;78.84
68378;DHT22;55322;48.146;11.516;2024-02-21T03:38:54;4.56;79.03
68378;DHT22;55322;48.146;11.516;2024-02-21T03:41:20;4.57;79.50
68378;DHT22;55322;48.146;11.516;2024-02-21T03:43:45;4.59;79.50
68378;DHT22;55322;48.146;11.516;2024-02-21T03:46:11;4.67;78.71
68378;DHT22;55322;48.146;11.516;2024-02-21T03:48:36;4.66;78.50
68378;DHT22;55322;48.146;11.516;2024-02-21T03:51:02;4.62;79.01
68378;DHT22;55322;48.146;11.516;2024-02-21T03:53:27;4.57;80.01
68378;DHT22;55322;48.146;11.516;2024-02-21T03:55:53;4.59;79.58
68378;DHT22;55322;48.146;11.516;2024-02-21T03:58:19;4.56;79.14
68378;DHT22;55322;48.146;11.516;2024-02-21T04:00:45;4.50;79.08
68378;DHT22;55322;48.146;11.516;2024-02-21T04:03:10;4.48;80.05
68378;DHT22;55322;48.146;11.516;2024-02-21T04:05:35;4.52;80.25
68378;DHT22;55322;48.146;11.516;2024-02-21T04:08:04;4.52;79.98
68378;DHT22;55322;48.146;11.516;2024-02-21T04:10:30;4.52;79.41
68378;DHT22;55322;48.146;11.516;2024-02-21T04:12:55;4.57;79.56
68378;DHT22;55322;48.146;11.516;2024-02-21T04:15:20;4.59;78.89
68378;DHT22;55322;48.146;11.516;2024-02-21T04:17:46;4.62;79.39
68378;DHT22;55322;48.146;11.516;2024-02-21T04:20:15;4.57;79.32
68378;DHT22;55322;48.146;11.516;2024-02-21T04:22:44;4.54;79.17
68378;DHT22;55322;48.146;11.516;2024-02-21T04:25:10;4.49;79.75
68378;DHT22;55322;48.146;11.516;2024-02-21T04:27:36;4.46;79.97
68378;DHT22;55322;48.146;11.516;2024-02-21T04:30:02;4.43;79.75
68378;DHT22;55322;48.146;11.516;2024-02-21T04:32:28;4.40;79.70
68378;DHT22;55322;48.146;11.516;2024-02-21T04:34:53;4.36;79.84
68378;DHT22;55322;48.146;11.516;2024-02-21T04:37:18;4.30;79.63
68378;DHT22;55322;48.146;11.516;2024-02-21T04:39:44;4.30;79.77
68378;DHT22;55322;48.146;11.516;2024-02-21T04:42:10;4.33;79.48
68378;DHT22;55322;48.146;11.516;2024-02-21T04:44:35;4.28;79.75
68378;DHT22;55322;48.146;11.516;2024-02-21T04:47:01;4.20;80.64
68378;DHT22;55322;48.146;11.516;2024-02-21T04:49:26;4.12;80.80
68378;DHT22;55322;48.146;11.516;2024-02-21T04:51:51;4.16;80.14
68378;DHT22;55322;48.146;11.516;2024-02-21T04:54:17;4.13;80.19
68378;DHT22;55322;48.146;11.516;2024-02-21T04:56:42;4.13;80.13
68378;DHT22;55322;48.146;11.516;2024-02-21T04:59:08;4.12;80.11
68378;DHT22;55322;48.146;11.516;2024-02-21T05:01:33;4.08;79.76
68378;DHT22;55322;48.146;11.516;2024-02-21T05:03:58;4.03;79.47
68378;DHT22;55322;48.146;11.516;2024-02-21T05:06:24;4.05;79.77
68378;DHT22;55322;48.146;11.516;2024-02-21T05:08:49;4.03;79.54
68378;DHT22;55322;48.146;11.516;2024-02-21T05:11:14;3.99;80.05
68378;DHT22;55322;48.146;11.516;2024-02-21T05:13:40;3.99;80.02
68378;DHT22;55322;48.146;11.516;2024-02-21T05:16:05;3.94;79.71
68378;DHT22;55322;48.146;11.516;2024-02-21T05:18:32;3.98;79.18
68378;DHT22;55322;48.146;11.516;2024-02-21T05:20:58;3.95;79.22
68378;DHT22;55322;48.146;11.516;2024-02-21T05:23:24;3.92;79.60
68378;DHT22;55322;48.146;11.516;2024-02-21T05:25:49;3.89;79.44
68378;DHT22;55322;48.146;11.516;2024-02-21T05:28:15;3.94;79.60
68378;DHT22;55322;48.146;11.516;2024-02-21T05:30:40;3.88;80.05
68378;DHT22;55322;48.146;11.516;2024-02-21T05:33:08;3.82;79.81
68378;DHT22;55322;48.146;11.516;2024-02-21T05:35:34;3.81;79.95
68378;DHT22;55322;48.146;11.516;2024-02-21T05:37:59;3.82;79.97
68378;DHT22;55322;48.146;11.516;2024-02-21T05:40:25;3.89;80.20
68378;DHT22;55322;48.146;11.516;2024-02-21T05:42:51;3.84;79.76
68378;DHT22;55322;48.146;11.516;2024-02-21T05:45:17;3.84;79.14
68378;DHT22;55322;48.146;11.516;2024-02-21T05:47:43;3.88;79.20
68378;DHT22;55322;48.146;11.516;2024-02-21T05:50:09;3.84;78.81
68378;DHT22;55322;48.146;11.516;2024-02-21T05:52:35;3.87;79.41
68378;DHT22;55322;48.146;11.516;2024-02-21T05:55:00;3.91;78.56
68378;DHT22;55322;48.146;11.516;2024-02-21T05:57:25;3.89;79.10
68378;DHT22;55322;48.146;11.516;2024-02-21T05:59:51;3.78;78.84
68378;DHT22;55322;48.146;11.516;2024-02-21T06:02:16;3.82;78.77
68378;DHT22;55322;48.146;11.516;2024-02-21T06:04:41;3.78;78.80
68378;DHT22;55322;48.146;11.516;2024-02-21T06:07:08;3.73;78.92
68378;DHT22;55322;48.146;11.516;2024-02-21T06:09:33;3.70;79.03
68378;DHT22;55322;48.146;11.516;2024-02-21T06:11:59;3.67;79.13
68378;DHT22;55322;48.146;11.516;2024-02-21T06:14:24;3.65;79.65
68378;DHT22;55322;48.146;11.516;2024-02-21T06:16:50;3.61;79.75
68378;DHT22;55322;48.146;11.516;2024-02-21T06:19:15;3.60;80.29
68378;DHT22;55322;48.146;11.516;2024-02-21T06:21:40;3.54;79.11
68378;DHT22;55322;48.146;11.516;2024-02-21T06:24:06;3.64;79.22
68378;DHT22;55322;48.146;11.516;2024-02-21T06:26:31;3.67;79.20
68378;DHT22;55322;48.146;11.516;2024-02-21T06:28:57;3.71;78.94
68378;DHT22;55322;48.146;11.516;2024-02-21T06:31:24;3.70;79.02
68378;DHT22;55322;48.146;11.516;2024-02-21T06:33:50;3.70;79.21
68378;DHT22;55322;48.146;11.516;2024-02-21T06:36:15;3.77;79.17
68378;DHT22;55322;48.146;11.516;2024-02-21T06:38:40;3.77;78.76
68378;DHT22;55322;48.146;11.516;2024-02-21T06:41:06;3.81;78.75
68378;DHT22;55322;48.146;11.516;2024-02-21T06:43:32;3.84;78.30
68378;DHT22;55322;48.146;11.516;2024-02-21T06:45:57;3.81;78.17
68378;DHT22;55322;48.146;11.516;2024-02-21T06:48:22;3.81;78.19
68378;DHT22;55322;48.146;11.516;2024-02-21T06:50:48;3.74;77.22
68378;DHT22;55322;48.146;11.516;2024-02-21T06:53:13;4.48;83.81
68378;DHT22;55322;48.146;11.516;2024-02-21T06:55:39;4.18;76.55
68378;DHT22;55322;48.146;11.516;2024-02-21T06:58:04;4.18;76.82
68378;DHT22;55322;48.146;11.516;2024-02-21T07:00:30;4.05;76.64
68378;DHT22;55322;48.146;11.516;2024-02-21T07:02:55;4.10;76.09
68378;DHT22;55322;48.146;11.516;2024-02-21T07:05:21;4.08;76.11
68378;DHT22;55322;48.146;11.516;2024-02-21T07:07:46;4.13;76.32
68378;DHT22;55322;48.146;11.516;2024-02-21T07:10:11;4.22;75.98
68378;DHT22;55322;48.146;11.516;2024-02-21T07:12:37;4.28;75.07
68378;DHT22;55322;48.146;11.516;2024-02-21T07:15:07;4.38;75.53
68378;DHT22;55322;48.146;11.516;2024-02-21T07:17:33;4.49;75.50
68378;DHT22;55322;48.146;11.516;2024-02-21T07:19:58;4.52;74.27
68378;DHT22;55322;48.146;11.516;2024-02-21T07:22:24;4.64;74.53
68378;DHT22;55322;48.146;11.516;2024-02-21T07:24:50;4.64;73.33
68378;DHT22;55322;48.146;11.516;2024-02-21T07:27:16;4.70;73.83
68378;DHT22;55322;48.146;11.516;2024-02-21T07:29:41;4.64;73.45
68378;DHT22;55322;48.146;11.516;2024-02-21T07:32:07;4.77;73.65
68378;DHT22;55322;48.146;11.516;2024-02-21T07:34:32;4.87;74.07
68378;DHT22;55322;48.146;11.516;2024-02-21T07:36:57;4.93;74.22
68378;DHT22;55322;48.146;11.516;2024-02-21T07:39:23;4.97;74.43
68378;DHT22;55322;48.146;11.516;2024-02-21T07:41:48;4.90;72.26
68378;DHT22;55322;48.146;11.516;2024-02-21T07:44:15;4.94;72.04
68378;DHT22;55322;48.146;11.516;2024-02-21T07:46:40;5.11;71.99
68378;DHT22;55322;48.146;11.516;2024-02-21T07:49:06;5.90;69.77
68378;DHT22;55322;48.146;11.516;2024-02-21T07:51:31;7.56;64.20
68378;DHT22;55322;48.146;11.516;2024-02-21T07:53:57;9.53;59.38
68378;DHT22;55322;48.146;11.516;2024-02-21T07:56:22;11.07;54.91
68378;DHT22;55322;48.146;11.516;2024-02-21T07:58:48;10.80;52.96
68378;DHT22;55322;48.146;11.516;2024-02-21T08:01:21;9.23;55.28
68378;DHT22;55322;48.146;11.516;2024-02-21T08:03:47;8.67;57.73
68378;DHT22;55322;48.146;11.516;2024-02-21T08:06:13;8.17;58.41
68378;DHT22;55322;48.146;11.516;2024-02-21T08:08:39;9.23;56.28
68378;DHT22;55322;48.146;11.516;2024-02-21T08:11:04;11.51;51.61
68378;DHT22;55322;48.146;11.516;2024-02-21T08:13:30;12.52;46.45
68378;DHT22;55322;48.146;11.516;2024-02-21T08:15:55;12.35;45.49
68378;DHT22;55322;48.146;11.516;2024-02-21T08:18:22;13.67;45.77
68378;DHT22;55322;48.146;11.516;2024-02-21T08:20:47;14.34;44.15
68378;DHT22;55322;48.146;11.516;2024-02-21T08:23:15;14.55;42.68
68378;DHT22;55322;48.146;11.516;2024-02-21T08:25:41;14.81;42.47
68378;DHT22;55322;48.146;11.516;2024-02-21T08:28:06;14.13;41.24
68378;DHT22;55322;48.146;11.516;2024-02-21T08:30:32;14.25;41.23
68378;DHT22;55322;48.146;11.516;2024-02-21T08:32:58;14.91;40.82
68378;DHT22;55322;48.146;11.516;2024-02-21T08:35:23;15.65;39.10
68378;DHT22;55322;48.146;11.516;2024-02-21T08:37:49;15.81;40.41
68378;DHT22;55322;48.146;11.516;2024-02-21T08:40:15;16.06;40.56
68378;DHT22;55322;48.146;11.516;2024-02-21T08:42:43;16.33;38.92
68378;DHT22;55322;48.146;11.516;2024-02-21T08:45:09;16.39;38.34
68378;DHT22;55322;48.146;11.516;2024-02-21T08:47:34;15.92;40.86
68378;DHT22;55322;48.146;11.516;2024-02-21T08:50:01;15.63;41.16
68378;DHT22;55322;48.146;11.516;2024-02-21T08:52:26;15.38;40.01
68378;DHT22;55322;48.146;11.516;2024-02-21T08:54:52;15.54;41.45
68378;DHT22;55322;48.146;11.516;2024-02-21T08:57:19;15.32;38.32
68378;DHT22;55322;48.146;11.516;2024-02-21T08:59:44;15.76;38.56
68378;DHT22;55322;48.146;11.516;2024-02-21T09:02:10;16.27;39.51
68378;DHT22;55322;48.146;11.516;2024-02-21T09:04:35;16.43;37.99
68378;DHT22;55322;48.146;11.516;2024-02-21T09:07:00;16.60;37.99
68378;DHT22;55322;48.146;11.516;2024-02-21T09:09:26;16.89;40.10
68378;DHT22;55322;48.146;11.516;2024-02-21T09:11:53;16.98;37.46
68378;DHT22;55322;48.146;11.516;2024-02-21T09:14:19;16.33;37.18
68378;DHT22;55322;48.146;11.516;2024-02-21T09:16:44;16.33;39.56
68378;DHT22;55322;48.146;11.516;2024-02-21T09:19:09;16.27;39.81
68378;DHT22;55322;48.146;11.516;2024-02-21T09:21:37;16.27;38.63
68378;DHT22;55322;48.146;11.516;2024-02-21T09:24:02;16.60;37.86
68378;DHT22;55322;48.146;11.516;2024-02-21T09:26:28;16.83;38.71
68378;DHT22;55322;48.146;11.516;2024-02-21T09:28:53;17.10;38.24
68378;DHT22;55322;48.146;11.516;2024-02-21T09:31:19;17.11;34.83
68378;DHT22;55322;48.146;11.516;2024-02-21T09:33:45;17.21;38.00
68378;DHT22;55322;48.146;11.516;2024-02-21T09:36:10;17.53;36.26
68378;DHT22;55322;48.146;11.516;2024-02-21T09:38:35;17.68;36.84
68378;DHT22;55322;48.146;11.516;2024-02-21T09:41:16;17.61;36.52
68378;DHT22;55322;48.146;11.516;2024-02-21T09:43:43;17.49;36.10
68378;DHT22;55322;48.146;11.516;2024-02-21T09:46:15;17.73;36.27
68378;DHT22;55322;48.146;11.516;2024-02-21T09:48:52;17.49;34.44
68378;DHT22;55322;48.146;11.516;2024-02-21T09:51:20;17.19;37.46
68378;DHT22;55322;48.146;11.516;2024-02-21T09:53:47;16.84;38.02
68378;DHT22;55322;48.146;11.516;2024-02-21T09:56:13;17.12;37.71
68378;DHT22;55322;48.146;11.516;2024-02-21T09:58:39;17.10;35.06
68378;DHT22;55322;48.146;11.516;2024-02-21T10:01:06;17.31;37.76
68378;DHT22;55322;48.146;11.516;2024-02-21T10:03:32;17.38;36.18
68378;DHT22;55322;48.146;11.516;2024-02-21T10:05:58;17.03;36.47
68378;DHT22;55322;48.146;11.516;2024-02-21T10:08:26;16.29;37.64
68378;DHT22;55322;48.146;11.516;2024-02-21T10:10:52;16.65;40.03
68378;DHT22;55322;48.146;11.516;2024-02-21T10:13:28;16.63;41.37
68378;DHT22;55322;48.146;11.516;2024-02-21T10:16:07;16.65;35.91
68378;DHT22;55322;48.146;11.516;2024-02-21T10:18:33;16.70;38.25
68378;DHT22;55322;48.146;11.516;2024-02-21T10:21:03;16.47;38.80
68378;DHT22;55322;48.146;11.516;2024-02-21T10:23:29;16.80;36.49
68378;DHT22;55322;48.146;11.516;2024-02-21T10:26:05;17.59;39.42
68378;DHT22;55322;48.146;11.516;2024-02-21T10:28:31;17.26;36.57
68378;DHT22;55322;48.146;11.516;2024-02-21T10:30:56;17.66;36.59
68378;DHT22;55322;48.146;11.516;2024-02-21T10:33:21;17.96;37.19
68378;DHT22;55322;48.146;11.516;2024-02-21T10:35:49;18.03;34.30
68378;DHT22;55322;48.146;11.516;2024-02-21T10:38:15;17.39;34.35
68378;DHT22;55322;48.146;11.516;2024-02-21T10:40:40;16.95;35.32
68378;DHT22;55322;48.146;11.516;2024-02-21T10:43:12;17.46;35.63
68378;DHT22;55322;48.146;11.516;2024-02-21T10:45:38;17.46;33.78
68378;DHT22;55322;48.146;11.516;2024-02-21T10:48:14;17.03;35.21
68378;DHT22;55322;48.146;11.516;2024-02-21T10:51:16;17.94;37.96
68378;DHT22;55322;48.146;11.516;2024-02-21T10:53:53;18.37;34.96
68378;DHT22;55322;48.146;11.516;2024-02-21T10:56:33;17.73;33.65
68378;DHT22;55322;48.146;11.516;2024-02-21T10:59:07;17.28;36.25
68378;DHT22;55322;48.146;11.516;2024-02-21T11:01:33;17.42;33.19
68378;DHT22;55322;48.146;11.516;2024-02-21T11:04:05;17.43;35.95
68378;DHT22;55322;48.146;11.516;2024-02-21T11:06:32;17.29;35.07
68378;DHT22;55322;48.146;11.516;2024-02-21T11:09:05;17.19;35.43
68378;DHT22;55322;48.146;11.516;2024-02-21T11:11:42;17.12;32.45
68378;DHT22;55322;48.146;11.516;2024-02-21T11:14:18;16.91;32.71
68378;DHT22;55322;48.146;11.516;2024-02-21T11:16:43;16.65;33.87
68378;DHT22;55322;48.146;11.516;2024-02-21T11:19:27;16.73;36.99
68378;DHT22;55322;48.146;11.516;2024-02-21T11:21:54;16.91;35.51
68378;DHT22;55322;48.146;11.516;2024-02-21T11:26:52;16.71;34.71
68378;DHT22;55322;48.146;11.516;2024-02-21T11:29:23;16.56;35.13
68378;DHT22;55322;48.146;11.516;2024-02-21T11:31:50;15.85;34.96
68378;DHT22;55322;48.146;11.516;2024-02-21T11:34:17;15.85;35.80
68378;DHT22;55322;48.146;11.516;2024-02-21T11:36:51;15.93;33.96
68378;DHT22;55322;48.146;11.516;2024-02-21T11:39:24;16.08;37.82
68378;DHT22;55322;48.146;11.516;2024-02-21T11:42:19;16.03;36.09
68378;DHT22;55322;48.146;11.516;2024-02-21T11:44:45;15.89;35.96
68378;DHT22;55322;48.146;11.516;2024-02-21T11:47:10;15.75;33.29
68378;DHT22;55322;48.146;11.516;2024-02-21T11:49:38;15.34;36.79
68378;DHT22;55322;48.146;11.516;2024-02-21T11:52:06;15.35;38.61
68378;DHT22;55322;48.146;11.516;2024-02-21T11:54:33;15.30;36.88
68378;DHT22;55322;48.146;11.516;2024-02-21T11:56:59;15.32;36.08
68378;DHT22;55322;48.146;11.516;2024-02-21T11:59:25;15.49;35.78
68378;DHT22;55322;48.146;11.516;2024-02-21T12:01:52;15.56;35.42
68378;DHT22;55322;48.146;11.516;2024-02-21T12:04:19;15.55;35.91
68378;DHT22;55322;48.146;11.516;2024-02-21T12:06:45;15.62;34.92
68378;DHT22;55322;48.146;11.516;2024-02-21T12:09:14;15.73;35.75
68378;DHT22;55322;48.146;11.516;2024-02-21T12:11:42;15.96;37.03
68378;DHT22;55322;48.146;11.516;2024-02-21T12:14:07;16.19;34.69
68378;DHT22;55322;48.146;11.516;2024-02-21T12:16:34;16.21;31.94
68378;DHT22;55322;48.146;11.516;2024-02-21T12:19:01;16.29;34.32
68378;DHT22;55322;48.146;11.516;2024-02-21T12:21:30;16.33;32.67
68378;DHT22;55322;48.146;11.516;2024-02-21T12:23:58;16.36;33.86
68378;DHT22;55322;48.146;11.516;2024-02-21T12:26:23;16.49;32.48
68378;DHT22;55322;48.146;11.516;2024-02-21T12:28:49;16.47;32.34
68378;DHT22;55322;48.146;11.516;2024-02-21T12:31:15;16.41;33.65
68378;DHT22;55322;48.146;11.516;2024-02-21T12:33:42;16.24;33.30
68378;DHT22;55322;48.146;11.516;2024-02-21T12:36:07;15.83;32.88
68378;DHT22;55322;48.146;11.516;2024-02-21T12:38:34;15.88;35.35
68378;DHT22;55322;48.146;11.516;2024-02-21T12:41:00;16.03;31.26
68378;DHT22;55322;48.146;11.516;2024-02-21T12:43:26;15.92;32.85
68378;DHT22;55322;48.146;11.516;2024-02-21T12:45:51;15.92;33.31
68378;DHT22;55322;48.146;11.516;2024-02-21T12:48:17;15.69;33.92
68378;DHT22;55322;48.146;11.516;2024-02-21T12:50:49;15.46;31.50
68378;DHT22;55322;48.146;11.516;2024-02-21T12:53:20;15.48;33.30
68378;DHT22;55322;48.146;11.516;2024-02-21T12:55:49;15.31;33.23
68378;DHT22;55322;48.146;11.516;2024-02-21T12:58:14;15.11;33.23
68378;DHT22;55322;48.146;11.516;2024-02-21T13:00:41;15.20;32.87
68378;DHT22;55322;48.146;11.516;2024-02-21T13:03:06;15.11;35.05
68378;DHT22;55322;48.146;11.516;2024-02-21T13:05:32;15.18;32.60
68378;DHT22;55322;48.146;11.516;2024-02-21T13:07:58;15.08;36.41
68378;DHT22;55322;48.146;11.516;2024-02-21T13:10:23;14.95;33.74
68378;DHT22;55322;48.146;11.516;2024-02-21T13:12:49;14.91;32.56
68378;DHT22;55322;48.146;11.516;2024-02-21T13:15:14;14.91;32.62
68378;DHT22;55322;48.146;11.516;2024-02-21T13:17:41;14.91;33.11
68378;DHT22;55322;48.146;11.516;2024-02-21T13:20:07;14.85;34.29
68378;DHT22;55322;48.146;11.516;2024-02-21T13:22:34;14.66;34.48
68378;DHT22;55322;48.146;11.516;2024-02-21T13:25:00;14.49;35.96
68378;DHT22;55322;48.146;11.516;2024-02-21T13:27:25;14.56;34.53
68378;DHT22;55322;48.146;11.516;2024-02-21T13:29:50;14.57;34.23
68378;DHT22;55322;48.146;11.516;2024-02-21T13:32:16;14.52;33.81
68378;DHT22;55322;48.146;11.516;2024-02-21T13:34:41;14.55;35.49
68378;DHT22;55322;48.146;11.516;2024-02-21T13:37:07;14.47;36.52
68378;DHT22;55322;48.146;11.516;2024-02-21T13:39:35;14.43;34.41
68378;DHT22;55322;48.146;11.516;2024-02-21T13:42:01;14.36;34.53
68378;DHT22;55322;48.146;11.516;2024-02-21T13:44:26;14.36;34.98
68378;DHT22;55322;48.146;11.516;2024-02-21T13:46:51;14.44;35.42
68378;DHT22;55322;48.146;11.516;2024-02-21T13:49:17;14.39;34.30
68378;DHT22;55322;48.146;11.516;2024-02-21T13:51:42;14.39;36.41
68378;DHT22;55322;48.146;11.516;2024-02-21T13:54:09;14.33;35.47
68378;DHT22;55322;48.146;11.516;2024-02-21T13:56:36;14.28;34.93
68378;DHT22;55322;48.146;11.516;2024-02-21T13:59:02;14.28;35.53
68378;DHT22;55322;48.146;11.516;2024-02-21T14:01:27;14.23;36.19
68378;DHT22;55322;48.146;11.516;2024-02-21T14:04:01;14.18;34.79
68378;DHT22;55322;48.146;11.516;2024-02-21T14:06:26;14.30;37.68
68378;DHT22;55322;48.146;11.516;2024-02-21T14:08:52;14.34;36.67
68378;DHT22;55322;48.146;11.516;2024-02-21T14:11:17;14.28;35.36
68378;DHT22;55322;48.146;11.516;2024-02-21T14:13:42;14.30;34.68
68378;DHT22;55322;48.146;11.516;2024-02-21T14:16:11;14.29;36.46
68378;DHT22;55322;48.146;11.516;2024-02-21T14:18:39;14.30;36.09
68378;DHT22;55322;48.146;11.516;2024-02-21T14:21:06;14.20;37.76
68378;DHT22;55322;48.146;11.516;2024-02-21T14:23:31;14.18;36.52
68378;DHT22;55322;48.146;11.516;2024-02-21T14:25:58;14.12;37.41
68378;DHT22;55322;48.146;11.516;2024-02-21T14:28:24;14.06;38.64
68378;DHT22;55322;48.146;11.516;2024-02-21T14:30:49;14.02;37.51
68378;DHT22;55322;48.146;11.516;2024-02-21T14:33:19;13.85;37.40
68378;DHT22;55322;48.146;11.516;2024-02-21T14:35:44;13.74;34.48
68378;DHT22;55322;48.146;11.516;2024-02-21T14:38:09;13.69;34.33
68378;DHT22;55322;48.146;11.516;2024-02-21T14:40:35;13.81;37.95
68378;DHT22;55322;48.146;11.516;2024-02-21T14:43:00;13.82;38.80
68378;DHT22;55322;48.146;11.516;2024-02-21T14:45:26;13.74;41.01
68378;DHT22;55322;48.146;11.516;2024-02-21T14:47:51;13.71;37.48
68378;DHT22;55322;48.146;11.516;2024-02-21T14:50:16;13.68;38.43
68378;DHT22;55322;48.146;11.516;2024-02-21T14:52:42;13.62;37.56
68378;DHT22;55322;48.146;11.516;2024-02-21T14:55:09;13.54;39.82
68378;DHT22;55322;48.146;11.516;2024-02-21T14:57:34;13.48;41.39
68378;DHT22;55322;48.146;11.516;2024-02-21T15:00:01;13.35;42.02
68378;DHT22;55322;48.146;11.516;2024-02-21T15:02:28;13.35;37.06
68378;DHT22;55322;48.146;11.516;2024-02-21T15:04:53;13.30;40.61
68378;DHT22;55322;48.146;11.516;2024-02-21T15:07:19;13.30;39.19
68378;DHT22;55322;48.146;11.516;2024-02-21T15:09:46;13.21;39.14
68378;DHT22;55322;48.146;11.516;2024-02-21T15:12:11;13.14;39.42
68378;DHT22;55322;48.146;11.516;2024-02-21T15:14:37;13.04;39.49
68378;DHT22;55322;48.146;11.516;2024-02-21T15:17:02;13.04;41.78
68378;DHT22;55322;48.146;11.516;2024-02-21T15:19:27;12.96;39.43
68378;DHT22;55322;48.146;11.516;2024-02-21T15:21:53;12.93;39.02